Fulmar — WDD3992 — position and weather

sailwx.info

Track history (hours):
 
Tides and Currents Weather Stations Pressure Air Temp Water Temp Dewpoint Dewpoint Depression Visibility Wind Speed Wind Dir Waves Ship Positions

Oceanographic research ship Fulmar (United States)

Owner: NOAA R/V Fulmar, Monterey, CA. More information available from US FCC via Universal Licensing System.

Last reported at 2017-May-27 16:57 UTC. Time now 2017-May-27 17:36 UTC.
Position N 37°54' W 123°08'.

Length 20 m; draft 2 m.

Type: Ship. MMSI: 367139040.

Date/timePositionNaut miles runAvg speedWind from/ knotsBaromVisibWave heightAir tempDewpointWater temp
2017-May-27 16:57N 37°54' W 123°08'614.6
2017-May-27 16:30N 37°54' W 122°60'611.0
2017-May-27 16:00N 37°54' W 122°53'1511.7
2017-May-27 14:43N 37°50' W 122°34'4 6.0
2017-May-27 14:00N 37°52' W 122°30'0 0.0
2017-May-27 04:43N 37°52' W 122°30'0 0.0
2017-May-27 04:29N 37°52' W 122°30'0 0.0
2017-May-27 04:00N 37°52' W 122°30'0 0.0
2017-May-27 03:30N 37°52' W 122°30'0 0.0
2017-May-27 02:59N 37°52' W 122°30'0 0.0
2017-May-27 02:29N 37°52' W 122°30'0 0.0
2017-May-27 02:00N 37°52' W 122°30'0 0.0
2017-May-27 01:30N 37°52' W 122°30'0 0.0
2017-May-27 00:32N 37°52' W 122°30'0 0.0
2017-May-27 00:30N 37°52' W 122°30'3 6.3
2017-May-27 00:01N 37°49' W 122°31'1312.0
2017-May-26 22:55N 37°44' W 122°46'510.6
2017-May-26 22:26N 37°44' W 122°53'1 1.7
2017-May-26 21:58N 37°44' W 122°54'3 7.6
2017-May-26 21:31N 37°44' W 122°58'4 6.9
2017-May-26 21:00N 37°44' W 123°03'1 0.2
2017-May-26 16:55N 37°44' W 123°03'1818.0
2017-May-26 15:54N 37°47' W 122°41'718.4
2017-May-26 15:30N 37°49' W 122°32'510.0
2017-May-26 15:00N 37°49' W 122°25'5 4.8
2017-May-26 14:00N 37°52' W 122°30'0 0.0
2017-May-26 13:30N 37°52' W 122°30'0 0.0
2017-May-26 00:17N 37°52' W 122°30'1 3.0
2017-May-26 00:01N 37°52' W 122°29'713.1
2017-May-25 23:31N 37°47' W 122°35'3 3.6
2017-May-25 22:35N 37°44' W 122°33'1 4.3
2017-May-25 22:15N 37°44' W 122°31'414.7
2017-May-25 21:56N 37°39' W 122°31'510.5
2017-May-25 21:30N 37°39' W 122°37'2810.9
2017-May-25 18:58N 37°41' W 123°11'9 4.4
2017-May-25 16:51N 37°49' W 123°05'411.1
2017-May-25 16:30N 37°49' W 123°00'510.9
2017-May-25 16:00N 37°49' W 122°54'915.9
2017-May-25 15:25N 37°49' W 122°42'511.6
2017-May-25 14:57N 37°49' W 122°35'511.5
2017-May-25 14:31N 37°49' W 122°29'3 0.2
2017-May-25 00:05N 37°52' W 122°30'0 0.0
2017-May-25 00:00N 37°52' W 122°30'0 0.1
2017-May-24 23:30N 37°52' W 122°29'0 0.2
2017-May-24 23:00N 37°52' W 122°30'0 0.0
2017-May-24 22:31N 37°52' W 122°30'0 0.0
2017-May-24 22:00N 37°52' W 122°30'0 0.0
2017-May-24 21:31N 37°52' W 122°30'0 0.1
2017-May-24 21:00N 37°52' W 122°30'1 1.4
2017-May-24 20:30N 37°52' W 122°29'815.5
2017-May-24 19:59N 37°45' W 122°33'1019.8
2017-May-24 19:31N 37°35' W 122°33'713.1
2017-May-24 19:01N 37°30' W 122°29'1 1.1
2017-May-24 18:30N 37°30' W 122°29'0 0.0
2017-May-24 18:00N 37°30' W 122°29'0 0.0
2017-May-24 17:30N 37°30' W 122°29'0 0.1
2017-May-24 17:00N 37°30' W 122°29'0 0.0
2017-May-24 16:30N 37°30' W 122°29'1 2.8
2017-May-24 16:00N 37°29' W 122°29'918.5
2017-May-24 15:30N 37°29' W 122°41'812.5
2017-May-24 14:54N 37°28' W 122°51'512.7
2017-May-24 14:30N 37°29' W 122°44'1212.4
2017-May-24 13:30N 37°30' W 122°29'0 0.0
2017-May-24 00:48N 37°30' W 122°29'0 0.1
2017-May-24 00:30N 37°30' W 122°29'4 8.6
2017-May-24 00:00N 37°26' W 122°29'918.6
2017-May-23 23:30N 37°17' W 122°27'813.0
2017-May-23 22:52N 37°08' W 122°24'817.7
2017-May-23 22:26N 37°02' W 122°19'817.9
2017-May-23 22:00N 36°56' W 122°13'918.0
2017-May-23 21:30N 36°49' W 122°06'1518.0
2017-May-23 20:41N 36°38' W 121°54'2 8.7
2017-May-23 20:30N 36°37' W 121°54'0 0.0
2017-May-23 20:00N 36°37' W 121°54'0 0.0
2017-May-23 19:30N 36°37' W 121°54'0 0.0
2017-May-23 19:00N 36°37' W 121°54'0 0.0
2017-May-23 18:30N 36°37' W 121°54'0 0.0
2017-May-23 18:00N 36°37' W 121°54'0 0.0
2017-May-23 17:30N 36°37' W 121°54'0 0.0
2017-May-23 17:01N 36°37' W 121°54'0 0.0
2017-May-23 16:30N 36°37' W 121°54'  
Track history (hours):
 
Tides and Currents Weather Stations Pressure Air Temp Water Temp Dewpoint Dewpoint Depression Visibility Wind Speed Wind Dir Waves Ship Positions

Oceanographic research ship Fulmar (United States)

Owner: NOAA R/V Fulmar, Monterey, CA. More information available from US FCC via Universal Licensing System.

Last reported at 2017-May-27 16:57 UTC. Time now 2017-May-27 17:36 UTC.
Position N 37°54' W 123°08'.

Length 20 m; draft 2 m.

Type: Ship. MMSI: 367139040.

Date/timePositionNaut miles runAvg speedWind from/ knotsBaromVisibWave heightAir tempDewpointWater temp
2017-May-27 16:57N 37°54' W 123°08'614.6
2017-May-27 16:30N 37°54' W 122°60'611.0
2017-May-27 16:00N 37°54' W 122°53'1511.7
2017-May-27 14:43N 37°50' W 122°34'4 6.0
2017-May-27 14:00N 37°52' W 122°30'0 0.0
2017-May-27 04:43N 37°52' W 122°30'0 0.0
2017-May-27 04:29N 37°52' W 122°30'0 0.0
2017-May-27 04:00N 37°52' W 122°30'0 0.0
2017-May-27 03:30N 37°52' W 122°30'0 0.0
2017-May-27 02:59N 37°52' W 122°30'0 0.0
2017-May-27 02:29N 37°52' W 122°30'0 0.0
2017-May-27 02:00N 37°52' W 122°30'0 0.0
2017-May-27 01:30N 37°52' W 122°30'0 0.0
2017-May-27 00:32N 37°52' W 122°30'0 0.0
2017-May-27 00:30N 37°52' W 122°30'3 6.3
2017-May-27 00:01N 37°49' W 122°31'1312.0
2017-May-26 22:55N 37°44' W 122°46'510.6
2017-May-26 22:26N 37°44' W 122°53'1 1.7
2017-May-26 21:58N 37°44' W 122°54'3 7.6
2017-May-26 21:31N 37°44' W 122°58'4 6.9
2017-May-26 21:00N 37°44' W 123°03'1 0.2
2017-May-26 16:55N 37°44' W 123°03'1818.0
2017-May-26 15:54N 37°47' W 122°41'718.4
2017-May-26 15:30N 37°49' W 122°32'510.0
2017-May-26 15:00N 37°49' W 122°25'5 4.8
2017-May-26 14:00N 37°52' W 122°30'0 0.0
2017-May-26 13:30N 37°52' W 122°30'0 0.0
2017-May-26 00:17N 37°52' W 122°30'1 3.0
2017-May-26 00:01N 37°52' W 122°29'713.1
2017-May-25 23:31N 37°47' W 122°35'3 3.6
2017-May-25 22:35N 37°44' W 122°33'1 4.3
2017-May-25 22:15N 37°44' W 122°31'414.7
2017-May-25 21:56N 37°39' W 122°31'510.5
2017-May-25 21:30N 37°39' W 122°37'2810.9
2017-May-25 18:58N 37°41' W 123°11'9 4.4
2017-May-25 16:51N 37°49' W 123°05'411.1
2017-May-25 16:30N 37°49' W 123°00'510.9
2017-May-25 16:00N 37°49' W 122°54'915.9
2017-May-25 15:25N 37°49' W 122°42'511.6
2017-May-25 14:57N 37°49' W 122°35'511.5
2017-May-25 14:31N 37°49' W 122°29'3 0.2
2017-May-25 00:05N 37°52' W 122°30'0 0.0
2017-May-25 00:00N 37°52' W 122°30'0 0.1
2017-May-24 23:30N 37°52' W 122°29'0 0.2
2017-May-24 23:00N 37°52' W 122°30'0 0.0
2017-May-24 22:31N 37°52' W 122°30'0 0.0
2017-May-24 22:00N 37°52' W 122°30'0 0.0
2017-May-24 21:31N 37°52' W 122°30'0 0.1
2017-May-24 21:00N 37°52' W 122°30'1 1.4
2017-May-24 20:30N 37°52' W 122°29'815.5
2017-May-24 19:59N 37°45' W 122°33'1019.8
2017-May-24 19:31N 37°35' W 122°33'713.1
2017-May-24 19:01N 37°30' W 122°29'1 1.1
2017-May-24 18:30N 37°30' W 122°29'0 0.0
2017-May-24 18:00N 37°30' W 122°29'0 0.0
2017-May-24 17:30N 37°30' W 122°29'0 0.1
2017-May-24 17:00N 37°30' W 122°29'0 0.0
2017-May-24 16:30N 37°30' W 122°29'1 2.8
2017-May-24 16:00N 37°29' W 122°29'918.5
2017-May-24 15:30N 37°29' W 122°41'812.5
2017-May-24 14:54N 37°28' W 122°51'512.7
2017-May-24 14:30N 37°29' W 122°44'1212.4
2017-May-24 13:30N 37°30' W 122°29'0 0.0
2017-May-24 00:48N 37°30' W 122°29'0 0.1
2017-May-24 00:30N 37°30' W 122°29'4 8.6
2017-May-24 00:00N 37°26' W 122°29'918.6
2017-May-23 23:30N 37°17' W 122°27'813.0
2017-May-23 22:52N 37°08' W 122°24'817.7
2017-May-23 22:26N 37°02' W 122°19'817.9
2017-May-23 22:00N 36°56' W 122°13'918.0
2017-May-23 21:30N 36°49' W 122°06'1518.0
2017-May-23 20:41N 36°38' W 121°54'2 8.7
2017-May-23 20:30N 36°37' W 121°54'0 0.0
2017-May-23 20:00N 36°37' W 121°54'0 0.0
2017-May-23 19:30N 36°37' W 121°54'0 0.0
2017-May-23 19:00N 36°37' W 121°54'0 0.0
2017-May-23 18:30N 36°37' W 121°54'0 0.0
2017-May-23 18:00N 36°37' W 121°54'0 0.0
2017-May-23 17:30N 36°37' W 121°54'0 0.0
2017-May-23 17:01N 36°37' W 121°54'0 0.0
2017-May-23 16:30N 36°37' W 121°54'  

Dump ship's entire track history